TAF and METAR

METAR for Nawabshah Airport

OPNH 290300Z 18006KT 5000 HZ NSC 33/17 Q0997 NOISG
Report created 29. mai 05:00
wind 6 knots from S (180°) visibility 5000 meters haze No significant clouds. Temperature 33° with dewpoint at 17° (Humidity 38.57%) Pressure 997 hPa

TAF for Nawabshah Airport

TAF OPNH 282200Z 2900/3006 21010G20KT 4000 HZ SCT030 TEMPO 2900/2904 23012KT 3000 HZ NSC TEMPO 3000/3004 18008KT 3000 HZ NSC
Report created 29. mai 00:00

between 29. mai 02:00 - 30. mai 08:00

wind 10 knots from SSW (210°) with gusts up to 20 knots visibility 4000 meters haze scattered clouds (~50% cover) at 3000 feet

temporarily between 29. mai 02:00 - 29. mai 06:00

wind 12 knots from SW (230°) visibility 3000 meters haze No significant clouds.

temporarily between 30. mai 02:00 - 30. mai 06:00

wind 8 knots from S (180°) visibility 3000 meters haze No significant clouds.